sensor_id;sensor_type;location;lat;lon;timestamp;P1;durP1;ratioP1;P2;durP2;ratioP2
33593;SDS011;19920;52.242;20.940;2022-09-19T00:01:09;9.88;;;3.30;;
33593;SDS011;19920;52.242;20.940;2022-09-19T00:03:37;9.35;;;3.20;;
33593;SDS011;19920;52.242;20.940;2022-09-19T00:06:05;6.30;;;2.95;;
33593;SDS011;19920;52.242;20.940;2022-09-19T00:08:31;8.77;;;2.90;;
33593;SDS011;19920;52.242;20.940;2022-09-19T00:11:00;11.15;;;2.92;;
33593;SDS011;19920;52.242;20.940;2022-09-19T00:13:26;6.37;;;3.10;;
33593;SDS011;19920;52.242;20.940;2022-09-19T00:15:53;7.63;;;2.63;;
33593;SDS011;19920;52.242;20.940;2022-09-19T00:18:18;7.28;;;3.17;;
33593;SDS011;19920;52.242;20.940;2022-09-19T00:20:44;6.72;;;3.03;;
33593;SDS011;19920;52.242;20.940;2022-09-19T00:23:11;6.45;;;2.78;;
33593;SDS011;19920;52.242;20.940;2022-09-19T00:25:56;10.25;;;3.15;;
33593;SDS011;19920;52.242;20.940;2022-09-19T00:28:26;7.35;;;2.97;;
33593;SDS011;19920;52.242;20.940;2022-09-19T00:30:56;8.93;;;3.53;;
33593;SDS011;19920;52.242;20.940;2022-09-19T00:33:23;9.68;;;3.13;;
33593;SDS011;19920;52.242;20.940;2022-09-19T00:35:55;6.82;;;2.92;;
33593;SDS011;19920;52.242;20.940;2022-09-19T00:38:28;7.60;;;2.72;;
33593;SDS011;19920;52.242;20.940;2022-09-19T00:40:54;9.48;;;3.38;;
33593;SDS011;19920;52.242;20.940;2022-09-19T00:43:21;7.18;;;3.00;;
33593;SDS011;19920;52.242;20.940;2022-09-19T00:45:50;9.40;;;2.88;;
33593;SDS011;19920;52.242;20.940;2022-09-19T00:48:16;8.85;;;2.88;;
33593;SDS011;19920;52.242;20.940;2022-09-19T00:50:46;8.18;;;3.08;;
33593;SDS011;19920;52.242;20.940;2022-09-19T00:53:18;6.38;;;2.50;;
33593;SDS011;19920;52.242;20.940;2022-09-19T01:00:51;6.53;;;3.15;;
33593;SDS011;19920;52.242;20.940;2022-09-19T01:03:18;5.13;;;2.40;;
33593;SDS011;19920;52.242;20.940;2022-09-19T01:05:49;7.03;;;2.90;;
33593;SDS011;19920;52.242;20.940;2022-09-19T01:08:37;6.63;;;2.97;;
33593;SDS011;19920;52.242;20.940;2022-09-19T01:11:16;5.70;;;2.88;;
33593;SDS011;19920;52.242;20.940;2022-09-19T01:17:19;6.97;;;2.88;;
33593;SDS011;19920;52.242;20.940;2022-09-19T01:28:34;9.32;;;3.40;;
33593;SDS011;19920;52.242;20.940;2022-09-19T01:33:44;7.47;;;3.40;;
33593;SDS011;19920;52.242;20.940;2022-09-19T01:36:18;8.85;;;3.08;;
33593;SDS011;19920;52.242;20.940;2022-09-19T01:38:48;7.28;;;3.17;;
33593;SDS011;19920;52.242;20.940;2022-09-19T01:41:17;9.52;;;3.35;;
33593;SDS011;19920;52.242;20.940;2022-09-19T01:43:44;6.90;;;3.15;;
33593;SDS011;19920;52.242;20.940;2022-09-19T01:46:12;8.68;;;3.13;;
33593;SDS011;19920;52.242;20.940;2022-09-19T01:49:11;8.77;;;3.40;;
33593;SDS011;19920;52.242;20.940;2022-09-19T01:52:07;6.88;;;3.95;;
33593;SDS011;19920;52.242;20.940;2022-09-19T02:04:55;8.30;;;3.40;;
33593;SDS011;19920;52.242;20.940;2022-09-19T02:10:19;10.40;;;4.03;;
33593;SDS011;19920;52.242;20.940;2022-09-19T02:12:52;9.88;;;3.70;;
33593;SDS011;19920;52.242;20.940;2022-09-19T02:15:22;12.30;;;3.88;;
33593;SDS011;19920;52.242;20.940;2022-09-19T02:17:55;11.70;;;4.47;;
33593;SDS011;19920;52.242;20.940;2022-09-19T02:22:58;8.85;;;4.22;;
33593;SDS011;19920;52.242;20.940;2022-09-19T02:25:31;7.07;;;3.30;;
33593;SDS011;19920;52.242;20.940;2022-09-19T02:28:09;7.57;;;3.60;;
33593;SDS011;19920;52.242;20.940;2022-09-19T02:30:39;7.70;;;4.10;;
33593;SDS011;19920;52.242;20.940;2022-09-19T02:33:07;11.77;;;4.18;;
33593;SDS011;19920;52.242;20.940;2022-09-19T02:38:35;6.95;;;4.10;;
33593;SDS011;19920;52.242;20.940;2022-09-19T02:41:22;7.90;;;4.40;;
33593;SDS011;19920;52.242;20.940;2022-09-19T02:52:20;9.73;;;4.40;;
33593;SDS011;19920;52.242;20.940;2022-09-19T02:55:02;7.78;;;4.22;;
33593;SDS011;19920;52.242;20.940;2022-09-19T02:57:42;10.10;;;4.25;;
33593;SDS011;19920;52.242;20.940;2022-09-19T03:00:12;8.43;;;4.38;;
33593;SDS011;19920;52.242;20.940;2022-09-19T03:02:49;9.93;;;4.07;;
33593;SDS011;19920;52.242;20.940;2022-09-19T03:05:21;15.30;;;4.63;;
33593;SDS011;19920;52.242;20.940;2022-09-19T03:10:22;7.15;;;4.43;;
33593;SDS011;19920;52.242;20.940;2022-09-19T03:12:53;8.20;;;4.45;;
33593;SDS011;19920;52.242;20.940;2022-09-19T03:15:38;11.93;;;4.80;;
33593;SDS011;19920;52.242;20.940;2022-09-19T03:18:18;8.40;;;4.82;;
33593;SDS011;19920;52.242;20.940;2022-09-19T03:20:47;9.43;;;4.35;;
33593;SDS011;19920;52.242;20.940;2022-09-19T03:23:22;6.70;;;4.40;;
33593;SDS011;19920;52.242;20.940;2022-09-19T03:25:55;10.00;;;5.22;;
33593;SDS011;19920;52.242;20.940;2022-09-19T03:28:20;12.55;;;5.10;;
33593;SDS011;19920;52.242;20.940;2022-09-19T03:30:47;11.27;;;4.82;;
33593;SDS011;19920;52.242;20.940;2022-09-19T03:33:13;10.90;;;5.03;;
33593;SDS011;19920;52.242;20.940;2022-09-19T03:35:43;12.73;;;5.82;;
33593;SDS011;19920;52.242;20.940;2022-09-19T03:38:11;11.15;;;4.95;;
33593;SDS011;19920;52.242;20.940;2022-09-19T03:40:37;7.93;;;4.45;;
33593;SDS011;19920;52.242;20.940;2022-09-19T03:43:03;9.23;;;5.13;;
33593;SDS011;19920;52.242;20.940;2022-09-19T03:45:29;12.07;;;5.80;;
33593;SDS011;19920;52.242;20.940;2022-09-19T03:47:55;12.32;;;5.97;;
33593;SDS011;19920;52.242;20.940;2022-09-19T03:50:21;8.90;;;5.70;;
33593;SDS011;19920;52.242;20.940;2022-09-19T03:52:48;9.80;;;5.50;;
33593;SDS011;19920;52.242;20.940;2022-09-19T03:55:14;8.77;;;5.78;;
33593;SDS011;19920;52.242;20.940;2022-09-19T03:57:40;10.45;;;5.75;;
33593;SDS011;19920;52.242;20.940;2022-09-19T04:00:07;10.70;;;5.53;;
33593;SDS011;19920;52.242;20.940;2022-09-19T04:02:33;11.63;;;5.43;;
33593;SDS011;19920;52.242;20.940;2022-09-19T04:05:00;9.82;;;5.18;;
33593;SDS011;19920;52.242;20.940;2022-09-19T04:07:27;9.77;;;6.10;;
33593;SDS011;19920;52.242;20.940;2022-09-19T04:09:53;9.60;;;5.78;;
33593;SDS011;19920;52.242;20.940;2022-09-19T04:12:22;10.80;;;6.45;;
33593;SDS011;19920;52.242;20.940;2022-09-19T04:14:48;10.63;;;5.88;;
33593;SDS011;19920;52.242;20.940;2022-09-19T04:17:14;9.43;;;5.38;;
33593;SDS011;19920;52.242;20.940;2022-09-19T04:19:40;10.25;;;5.90;;
33593;SDS011;19920;52.242;20.940;2022-09-19T04:22:07;10.02;;;5.78;;
33593;SDS011;19920;52.242;20.940;2022-09-19T04:24:34;12.02;;;6.22;;
33593;SDS011;19920;52.242;20.940;2022-09-19T04:27:03;8.68;;;6.13;;
33593;SDS011;19920;52.242;20.940;2022-09-19T04:29:32;12.25;;;6.82;;
33593;SDS011;19920;52.242;20.940;2022-09-19T04:31:58;11.65;;;6.95;;
33593;SDS011;19920;52.242;20.940;2022-09-19T04:34:27;11.47;;;6.53;;
33593;SDS011;19920;52.242;20.940;2022-09-19T04:36:54;11.10;;;6.75;;
33593;SDS011;19920;52.242;20.940;2022-09-19T04:39:22;10.75;;;6.80;;
33593;SDS011;19920;52.242;20.940;2022-09-19T04:41:48;14.15;;;7.60;;
33593;SDS011;19920;52.242;20.940;2022-09-19T04:44:17;13.82;;;7.18;;
33593;SDS011;19920;52.242;20.940;2022-09-19T04:46:44;13.80;;;7.80;;
33593;SDS011;19920;52.242;20.940;2022-09-19T04:49:10;11.13;;;7.55;;
33593;SDS011;19920;52.242;20.940;2022-09-19T04:51:37;14.32;;;7.30;;
33593;SDS011;19920;52.242;20.940;2022-09-19T04:54:02;12.48;;;7.60;;
33593;SDS011;19920;52.242;20.940;2022-09-19T04:56:30;12.13;;;8.23;;
33593;SDS011;19920;52.242;20.940;2022-09-19T04:58:56;11.48;;;8.13;;
33593;SDS011;19920;52.242;20.940;2022-09-19T05:01:24;12.35;;;7.63;;
33593;SDS011;19920;52.242;20.940;2022-09-19T05:03:51;12.27;;;8.77;;
33593;SDS011;19920;52.242;20.940;2022-09-19T05:06:16;15.48;;;9.25;;
33593;SDS011;19920;52.242;20.940;2022-09-19T05:08:43;14.65;;;8.40;;
33593;SDS011;19920;52.242;20.940;2022-09-19T05:11:08;15.32;;;8.82;;
33593;SDS011;19920;52.242;20.940;2022-09-19T05:13:36;13.38;;;8.82;;
33593;SDS011;19920;52.242;20.940;2022-09-19T05:16:06;14.18;;;9.02;;
33593;SDS011;19920;52.242;20.940;2022-09-19T05:18:33;15.30;;;9.30;;
33593;SDS011;19920;52.242;20.940;2022-09-19T05:21:04;15.57;;;9.68;;
33593;SDS011;19920;52.242;20.940;2022-09-19T05:23:35;13.48;;;9.77;;
33593;SDS011;19920;52.242;20.940;2022-09-19T05:26:09;15.15;;;11.00;;
33593;SDS011;19920;52.242;20.940;2022-09-19T05:28:42;15.43;;;10.98;;
33593;SDS011;19920;52.242;20.940;2022-09-19T05:31:11;17.27;;;11.68;;
33593;SDS011;19920;52.242;20.940;2022-09-19T05:33:37;14.75;;;10.68;;
33593;SDS011;19920;52.242;20.940;2022-09-19T05:36:03;15.63;;;11.43;;
33593;SDS011;19920;52.242;20.940;2022-09-19T05:38:30;15.70;;;11.65;;
33593;SDS011;19920;52.242;20.940;2022-09-19T05:40:57;14.85;;;10.77;;
33593;SDS011;19920;52.242;20.940;2022-09-19T05:45:53;16.73;;;11.60;;
33593;SDS011;19920;52.242;20.940;2022-09-19T05:48:20;14.77;;;11.73;;
33593;SDS011;19920;52.242;20.940;2022-09-19T05:50:47;15.13;;;10.68;;
33593;SDS011;19920;52.242;20.940;2022-09-19T05:53:13;20.30;;;10.85;;
33593;SDS011;19920;52.242;20.940;2022-09-19T05:55:59;16.63;;;11.02;;
33593;SDS011;19920;52.242;20.940;2022-09-19T05:58:25;15.88;;;10.73;;
33593;SDS011;19920;52.242;20.940;2022-09-19T06:00:53;15.55;;;11.38;;
33593;SDS011;19920;52.242;20.940;2022-09-19T06:03:19;15.20;;;11.73;;
33593;SDS011;19920;52.242;20.940;2022-09-19T06:05:47;15.85;;;11.68;;
33593;SDS011;19920;52.242;20.940;2022-09-19T06:08:16;16.30;;;11.90;;
33593;SDS011;19920;52.242;20.940;2022-09-19T06:10:46;19.45;;;12.82;;
33593;SDS011;19920;52.242;20.940;2022-09-19T06:13:14;19.13;;;14.73;;
33593;SDS011;19920;52.242;20.940;2022-09-19T06:15:41;15.68;;;12.75;;
33593;SDS011;19920;52.242;20.940;2022-09-19T06:18:07;16.50;;;12.18;;
33593;SDS011;19920;52.242;20.940;2022-09-19T06:20:37;18.55;;;12.80;;
33593;SDS011;19920;52.242;20.940;2022-09-19T06:23:03;21.48;;;13.25;;
33593;SDS011;19920;52.242;20.940;2022-09-19T06:25:31;17.77;;;13.40;;
33593;SDS011;19920;52.242;20.940;2022-09-19T06:28:00;16.00;;;13.68;;
33593;SDS011;19920;52.242;20.940;2022-09-19T06:30:28;19.00;;;14.05;;
33593;SDS011;19920;52.242;20.940;2022-09-19T06:32:55;20.88;;;14.25;;
33593;SDS011;19920;52.242;20.940;2022-09-19T06:35:21;18.88;;;15.10;;
33593;SDS011;19920;52.242;20.940;2022-09-19T06:37:48;18.42;;;15.45;;
33593;SDS011;19920;52.242;20.940;2022-09-19T06:40:14;17.00;;;14.63;;
33593;SDS011;19920;52.242;20.940;2022-09-19T06:42:46;21.42;;;14.98;;
33593;SDS011;19920;52.242;20.940;2022-09-19T06:45:11;22.77;;;16.02;;
33593;SDS011;19920;52.242;20.940;2022-09-19T06:47:37;21.50;;;14.90;;
33593;SDS011;19920;52.242;20.940;2022-09-19T06:50:03;18.83;;;14.95;;
33593;SDS011;19920;52.242;20.940;2022-09-19T06:52:29;23.30;;;16.80;;
33593;SDS011;19920;52.242;20.940;2022-09-19T06:54:55;20.75;;;15.60;;
33593;SDS011;19920;52.242;20.940;2022-09-19T06:57:23;20.80;;;16.05;;
33593;SDS011;19920;52.242;20.940;2022-09-19T06:59:49;24.17;;;15.85;;
33593;SDS011;19920;52.242;20.940;2022-09-19T07:02:14;22.10;;;15.98;;
33593;SDS011;19920;52.242;20.940;2022-09-19T07:04:40;19.60;;;15.10;;
33593;SDS011;19920;52.242;20.940;2022-09-19T07:07:06;19.85;;;14.32;;
33593;SDS011;19920;52.242;20.940;2022-09-19T07:09:32;20.83;;;15.55;;
33593;SDS011;19920;52.242;20.940;2022-09-19T07:11:57;22.30;;;16.67;;
33593;SDS011;19920;52.242;20.940;2022-09-19T07:14:26;21.73;;;16.75;;
33593;SDS011;19920;52.242;20.940;2022-09-19T07:16:51;24.20;;;16.85;;
33593;SDS011;19920;52.242;20.940;2022-09-19T07:19:17;21.95;;;16.27;;
33593;SDS011;19920;52.242;20.940;2022-09-19T07:21:43;22.33;;;16.70;;
33593;SDS011;19920;52.242;20.940;2022-09-19T07:24:09;20.95;;;15.38;;
33593;SDS011;19920;52.242;20.940;2022-09-19T07:26:34;18.88;;;15.05;;
33593;SDS011;19920;52.242;20.940;2022-09-19T07:29:00;22.52;;;14.55;;
33593;SDS011;19920;52.242;20.940;2022-09-19T07:31:26;21.33;;;15.23;;
33593;SDS011;19920;52.242;20.940;2022-09-19T07:33:53;21.45;;;15.75;;
33593;SDS011;19920;52.242;20.940;2022-09-19T07:36:19;21.05;;;15.52;;
33593;SDS011;19920;52.242;20.940;2022-09-19T07:38:49;24.63;;;16.07;;
33593;SDS011;19920;52.242;20.940;2022-09-19T07:41:15;24.38;;;16.92;;
33593;SDS011;19920;52.242;20.940;2022-09-19T07:43:42;23.10;;;17.48;;
33593;SDS011;19920;52.242;20.940;2022-09-19T07:46:09;22.08;;;17.00;;
33593;SDS011;19920;52.242;20.940;2022-09-19T07:48:37;23.30;;;16.77;;
33593;SDS011;19920;52.242;20.940;2022-09-19T07:51:03;20.05;;;16.10;;
33593;SDS011;19920;52.242;20.940;2022-09-19T07:53:29;19.10;;;15.02;;
33593;SDS011;19920;52.242;20.940;2022-09-19T07:55:55;17.30;;;14.88;;
33593;SDS011;19920;52.242;20.940;2022-09-19T07:58:22;20.33;;;15.68;;
33593;SDS011;19920;52.242;20.940;2022-09-19T08:00:50;21.42;;;15.15;;
33593;SDS011;19920;52.242;20.940;2022-09-19T08:03:16;19.38;;;14.35;;
33593;SDS011;19920;52.242;20.940;2022-09-19T08:05:44;18.17;;;14.75;;
33593;SDS011;19920;52.242;20.940;2022-09-19T08:08:12;20.60;;;14.27;;
33593;SDS011;19920;52.242;20.940;2022-09-19T08:10:39;17.17;;;13.50;;
33593;SDS011;19920;52.242;20.940;2022-09-19T08:13:06;19.70;;;14.63;;
33593;SDS011;19920;52.242;20.940;2022-09-19T08:15:34;17.63;;;13.48;;
33593;SDS011;19920;52.242;20.940;2022-09-19T08:18:02;18.75;;;14.02;;
33593;SDS011;19920;52.242;20.940;2022-09-19T08:20:28;18.83;;;14.07;;
33593;SDS011;19920;52.242;20.940;2022-09-19T08:23:03;17.77;;;13.93;;
33593;SDS011;19920;52.242;20.940;2022-09-19T08:25:31;17.00;;;13.10;;
33593;SDS011;19920;52.242;20.940;2022-09-19T08:27:58;14.18;;;12.40;;
33593;SDS011;19920;52.242;20.940;2022-09-19T08:30:25;17.90;;;12.35;;
33593;SDS011;19920;52.242;20.940;2022-09-19T08:32:55;16.60;;;13.13;;
33593;SDS011;19920;52.242;20.940;2022-09-19T08:35:21;17.00;;;12.02;;
33593;SDS011;19920;52.242;20.940;2022-09-19T08:37:52;16.05;;;11.35;;
33593;SDS011;19920;52.242;20.940;2022-09-19T08:48:57;16.95;;;12.35;;
33593;SDS011;19920;52.242;20.940;2022-09-19T08:51:43;14.43;;;11.95;;
33593;SDS011;19920;52.242;20.940;2022-09-19T08:54:22;15.95;;;12.13;;
33593;SDS011;19920;52.242;20.940;2022-09-19T08:57:01;14.27;;;12.68;;
33593;SDS011;19920;52.242;20.940;2022-09-19T08:59:35;20.20;;;13.13;;
33593;SDS011;19920;52.242;20.940;2022-09-19T09:04:59;15.23;;;12.65;;
33593;SDS011;19920;52.242;20.940;2022-09-19T09:23:40;9.77;;;8.82;;
33593;SDS011;19920;52.242;20.940;2022-09-19T09:26:13;9.68;;;8.68;;
33593;SDS011;19920;52.242;20.940;2022-09-19T09:28:47;10.75;;;8.82;;
33593;SDS011;19920;52.242;20.940;2022-09-19T09:31:45;10.52;;;8.70;;
33593;SDS011;19920;52.242;20.940;2022-09-19T09:34:23;11.30;;;9.02;;
33593;SDS011;19920;52.242;20.940;2022-09-19T09:37:05;10.95;;;8.93;;
33593;SDS011;19920;52.242;20.940;2022-09-19T09:39:40;10.23;;;8.57;;
33593;SDS011;19920;52.242;20.940;2022-09-19T09:42:34;23.20;;;8.85;;
33593;SDS011;19920;52.242;20.940;2022-09-19T09:45:17;8.48;;;7.53;;
33593;SDS011;19920;52.242;20.940;2022-09-19T09:48:07;9.27;;;7.72;;
33593;SDS011;19920;52.242;20.940;2022-09-19T09:57:19;10.85;;;8.20;;
33593;SDS011;19920;52.242;20.940;2022-09-19T09:59:54;10.45;;;8.23;;
33593;SDS011;19920;52.242;20.940;2022-09-19T10:05:42;9.57;;;8.32;;
33593;SDS011;19920;52.242;20.940;2022-09-19T10:10:46;12.65;;;6.90;;
33593;SDS011;19920;52.242;20.940;2022-09-19T10:15:56;9.52;;;7.70;;
33593;SDS011;19920;52.242;20.940;2022-09-19T10:18:30;7.97;;;7.15;;
33593;SDS011;19920;52.242;20.940;2022-09-19T10:21:08;8.90;;;7.60;;
33593;SDS011;19920;52.242;20.940;2022-09-19T10:23:34;10.35;;;8.32;;
33593;SDS011;19920;52.242;20.940;2022-09-19T10:26:00;11.73;;;8.10;;
33593;SDS011;19920;52.242;20.940;2022-09-19T10:28:40;10.27;;;8.48;;
33593;SDS011;19920;52.242;20.940;2022-09-19T10:31:24;10.45;;;7.88;;
33593;SDS011;19920;52.242;20.940;2022-09-19T10:34:01;12.68;;;8.52;;
33593;SDS011;19920;52.242;20.940;2022-09-19T10:36:31;10.35;;;8.48;;
33593;SDS011;19920;52.242;20.940;2022-09-19T10:39:11;12.70;;;8.60;;
33593;SDS011;19920;52.242;20.940;2022-09-19T10:41:40;9.23;;;8.25;;
33593;SDS011;19920;52.242;20.940;2022-09-19T10:44:18;10.25;;;7.47;;
33593;SDS011;19920;52.242;20.940;2022-09-19T10:46:49;10.75;;;8.23;;
33593;SDS011;19920;52.242;20.940;2022-09-19T10:49:24;12.55;;;7.97;;
33593;SDS011;19920;52.242;20.940;2022-09-19T10:51:52;11.80;;;7.80;;
33593;SDS011;19920;52.242;20.940;2022-09-19T10:54:30;9.93;;;7.43;;
33593;SDS011;19920;52.242;20.940;2022-09-19T10:57:00;10.73;;;7.03;;
33593;SDS011;19920;52.242;20.940;2022-09-19T10:59:34;9.90;;;7.75;;
33593;SDS011;19920;52.242;20.940;2022-09-19T11:02:24;11.13;;;7.72;;
33593;SDS011;19920;52.242;20.940;2022-09-19T11:04:53;11.32;;;7.97;;
33593;SDS011;19920;52.242;20.940;2022-09-19T11:07:29;12.77;;;7.95;;
33593;SDS011;19920;52.242;20.940;2022-09-19T11:09:58;10.10;;;7.70;;
33593;SDS011;19920;52.242;20.940;2022-09-19T11:12:26;10.50;;;7.65;;
33593;SDS011;19920;52.242;20.940;2022-09-19T11:14:55;10.00;;;7.97;;
33593;SDS011;19920;52.242;20.940;2022-09-19T11:30:53;10.90;;;6.30;;
33593;SDS011;19920;52.242;20.940;2022-09-19T11:42:05;9.35;;;6.28;;
33593;SDS011;19920;52.242;20.940;2022-09-19T11:45:08;11.40;;;6.25;;
33593;SDS011;19920;52.242;20.940;2022-09-19T11:47:56;7.53;;;5.18;;
33593;SDS011;19920;52.242;20.940;2022-09-19T11:51:02;6.85;;;5.50;;
33593;SDS011;19920;52.242;20.940;2022-09-19T12:09:48;9.32;;;5.57;;
33593;SDS011;19920;52.242;20.940;2022-09-19T12:12:29;7.45;;;5.20;;
33593;SDS011;19920;52.242;20.940;2022-09-19T12:17:53;11.23;;;5.45;;
33593;SDS011;19920;52.242;20.940;2022-09-19T12:20:30;8.85;;;5.25;;
33593;SDS011;19920;52.242;20.940;2022-09-19T12:23:06;8.38;;;5.40;;
33593;SDS011;19920;52.242;20.940;2022-09-19T12:26:15;7.40;;;4.95;;
33593;SDS011;19920;52.242;20.940;2022-09-19T12:31:35;6.43;;;4.85;;
33593;SDS011;19920;52.242;20.940;2022-09-19T12:34:04;8.25;;;4.70;;
33593;SDS011;19920;52.242;20.940;2022-09-19T12:42:11;7.32;;;5.20;;
33593;SDS011;19920;52.242;20.940;2022-09-19T12:50:20;10.68;;;5.78;;
33593;SDS011;19920;52.242;20.940;2022-09-19T12:56:03;7.47;;;5.18;;
33593;SDS011;19920;52.242;20.940;2022-09-19T13:03:47;6.82;;;4.43;;
33593;SDS011;19920;52.242;20.940;2022-09-19T13:06:27;6.13;;;3.97;;
33593;SDS011;19920;52.242;20.940;2022-09-19T13:09:06;5.82;;;3.83;;
33593;SDS011;19920;52.242;20.940;2022-09-19T13:11:55;5.63;;;4.30;;
33593;SDS011;19920;52.242;20.940;2022-09-19T13:14:42;7.07;;;3.67;;
33593;SDS011;19920;52.242;20.940;2022-09-19T13:17:14;7.30;;;3.78;;
33593;SDS011;19920;52.242;20.940;2022-09-19T13:19:58;4.82;;;3.40;;
33593;SDS011;19920;52.242;20.940;2022-09-19T13:22:48;6.35;;;3.70;;
33593;SDS011;19920;52.242;20.940;2022-09-19T13:25:35;7.05;;;3.63;;
33593;SDS011;19920;52.242;20.940;2022-09-19T13:30:47;6.35;;;4.05;;
33593;SDS011;19920;52.242;20.940;2022-09-19T13:33:24;6.35;;;3.55;;
33593;SDS011;19920;52.242;20.940;2022-09-19T13:36:07;5.57;;;2.78;;
33593;SDS011;19920;52.242;20.940;2022-09-19T13:38:39;4.40;;;3.28;;
33593;SDS011;19920;52.242;20.940;2022-09-19T13:47:22;5.63;;;3.00;;
33593;SDS011;19920;52.242;20.940;2022-09-19T13:51:57;5.15;;;3.85;;
33593;SDS011;19920;52.242;20.940;2022-09-19T13:59:27;6.15;;;3.55;;
33593;SDS011;19920;52.242;20.940;2022-09-19T14:07:19;6.85;;;4.07;;
33593;SDS011;19920;52.242;20.940;2022-09-19T14:20:51;7.35;;;4.30;;
33593;SDS011;19920;52.242;20.940;2022-09-19T14:23:21;7.28;;;4.53;;
33593;SDS011;19920;52.242;20.940;2022-09-19T14:28:44;6.45;;;4.70;;
33593;SDS011;19920;52.242;20.940;2022-09-19T14:48:23;9.60;;;4.90;;
33593;SDS011;19920;52.242;20.940;2022-09-19T14:51:50;9.55;;;5.38;;
33593;SDS011;19920;52.242;20.940;2022-09-19T14:53:49;6.45;;;4.63;;
33593;SDS011;19920;52.242;20.940;2022-09-19T14:56:17;7.28;;;4.93;;
33593;SDS011;19920;52.242;20.940;2022-09-19T14:58:50;8.13;;;5.13;;
33593;SDS011;19920;52.242;20.940;2022-09-19T15:01:33;7.45;;;5.35;;
33593;SDS011;19920;52.242;20.940;2022-09-19T15:04:10;7.07;;;4.97;;
33593;SDS011;19920;52.242;20.940;2022-09-19T15:06:50;7.95;;;4.70;;
33593;SDS011;19920;52.242;20.940;2022-09-19T15:11:51;7.70;;;4.63;;
33593;SDS011;19920;52.242;20.940;2022-09-19T15:14:26;5.32;;;4.00;;
33593;SDS011;19920;52.242;20.940;2022-09-19T15:17:13;9.15;;;4.38;;
33593;SDS011;19920;52.242;20.940;2022-09-19T15:19:51;7.63;;;4.20;;
33593;SDS011;19920;52.242;20.940;2022-09-19T15:22:29;6.53;;;4.18;;
33593;SDS011;19920;52.242;20.940;2022-09-19T15:25:05;7.43;;;4.20;;
33593;SDS011;19920;52.242;20.940;2022-09-19T15:27:48;6.65;;;3.97;;
33593;SDS011;19920;52.242;20.940;2022-09-19T15:30:29;6.23;;;3.77;;
33593;SDS011;19920;52.242;20.940;2022-09-19T15:33:08;6.75;;;4.00;;
33593;SDS011;19920;52.242;20.940;2022-09-19T15:35:41;7.13;;;3.80;;
33593;SDS011;19920;52.242;20.940;2022-09-19T15:38:13;7.82;;;4.05;;
33593;SDS011;19920;52.242;20.940;2022-09-19T15:40:50;6.72;;;3.80;;
33593;SDS011;19920;52.242;20.940;2022-09-19T15:43:17;7.03;;;3.90;;
33593;SDS011;19920;52.242;20.940;2022-09-19T15:45:44;5.63;;;3.90;;
33593;SDS011;19920;52.242;20.940;2022-09-19T15:51:00;6.30;;;3.85;;
33593;SDS011;19920;52.242;20.940;2022-09-19T15:53:30;7.03;;;4.50;;
33593;SDS011;19920;52.242;20.940;2022-09-19T15:58:40;6.38;;;3.90;;
33593;SDS011;19920;52.242;20.940;2022-09-19T16:12:02;8.13;;;4.60;;
33593;SDS011;19920;52.242;20.940;2022-09-19T16:15:02;8.90;;;4.57;;
33593;SDS011;19920;52.242;20.940;2022-09-19T16:26:11;7.18;;;4.40;;
33593;SDS011;19920;52.242;20.940;2022-09-19T16:28:23;7.45;;;3.97;;
33593;SDS011;19920;52.242;20.940;2022-09-19T16:34:06;5.75;;;4.10;;
33593;SDS011;19920;52.242;20.940;2022-09-19T16:36:54;9.30;;;4.40;;
33593;SDS011;19920;52.242;20.940;2022-09-19T16:46:59;6.63;;;4.38;;
33593;SDS011;19920;52.242;20.940;2022-09-19T16:49:46;6.38;;;4.05;;
33593;SDS011;19920;52.242;20.940;2022-09-19T16:52:35;7.53;;;4.47;;
33593;SDS011;19920;52.242;20.940;2022-09-19T16:55:01;6.38;;;4.22;;
33593;SDS011;19920;52.242;20.940;2022-09-19T16:57:30;7.80;;;4.20;;
33593;SDS011;19920;52.242;20.940;2022-09-19T16:59:56;6.13;;;4.80;;
33593;SDS011;19920;52.242;20.940;2022-09-19T17:02:23;6.63;;;4.40;;
33593;SDS011;19920;52.242;20.940;2022-09-19T17:04:49;7.05;;;4.32;;
33593;SDS011;19920;52.242;20.940;2022-09-19T17:07:16;6.68;;;4.57;;
33593;SDS011;19920;52.242;20.940;2022-09-19T17:09:44;6.55;;;4.20;;
33593;SDS011;19920;52.242;20.940;2022-09-19T17:12:12;5.80;;;4.28;;
33593;SDS011;19920;52.242;20.940;2022-09-19T17:14:38;8.25;;;5.10;;
33593;SDS011;19920;52.242;20.940;2022-09-19T17:17:04;8.90;;;4.85;;
33593;SDS011;19920;52.242;20.940;2022-09-19T17:19:30;7.95;;;4.95;;
33593;SDS011;19920;52.242;20.940;2022-09-19T17:21:55;7.47;;;4.90;;
33593;SDS011;19920;52.242;20.940;2022-09-19T17:24:21;8.40;;;5.05;;
33593;SDS011;19920;52.242;20.940;2022-09-19T17:26:47;9.02;;;5.30;;
33593;SDS011;19920;52.242;20.940;2022-09-19T17:29:15;7.05;;;4.70;;
33593;SDS011;19920;52.242;20.940;2022-09-19T17:31:42;7.88;;;5.15;;
33593;SDS011;19920;52.242;20.940;2022-09-19T17:34:08;9.07;;;5.40;;
33593;SDS011;19920;52.242;20.940;2022-09-19T17:36:35;10.30;;;5.63;;
33593;SDS011;19920;52.242;20.940;2022-09-19T17:39:01;11.52;;;6.03;;
33593;SDS011;19920;52.242;20.940;2022-09-19T17:41:28;9.02;;;6.07;;
33593;SDS011;19920;52.242;20.940;2022-09-19T17:43:55;10.35;;;6.20;;
33593;SDS011;19920;52.242;20.940;2022-09-19T17:46:21;10.13;;;6.30;;
33593;SDS011;19920;52.242;20.940;2022-09-19T17:48:52;9.88;;;6.40;;
33593;SDS011;19920;52.242;20.940;2022-09-19T17:51:18;8.73;;;6.63;;
33593;SDS011;19920;52.242;20.940;2022-09-19T17:53:45;10.10;;;6.72;;
33593;SDS011;19920;52.242;20.940;2022-09-19T17:56:29;9.13;;;6.55;;
33593;SDS011;19920;52.242;20.940;2022-09-19T17:58:57;9.82;;;6.90;;
33593;SDS011;19920;52.242;20.940;2022-09-19T18:01:24;9.25;;;6.82;;
33593;SDS011;19920;52.242;20.940;2022-09-19T18:04:10;9.93;;;6.90;;
33593;SDS011;19920;52.242;20.940;2022-09-19T18:06:37;8.98;;;6.85;;
33593;SDS011;19920;52.242;20.940;2022-09-19T18:09:04;10.05;;;7.18;;
33593;SDS011;19920;52.242;20.940;2022-09-19T18:11:31;10.30;;;7.78;;
33593;SDS011;19920;52.242;20.940;2022-09-19T18:13:58;12.73;;;7.40;;
33593;SDS011;19920;52.242;20.940;2022-09-19T18:16:27;11.43;;;8.50;;
33593;SDS011;19920;52.242;20.940;2022-09-19T18:18:54;12.10;;;8.38;;
33593;SDS011;19920;52.242;20.940;2022-09-19T18:21:20;9.70;;;7.55;;
33593;SDS011;19920;52.242;20.940;2022-09-19T18:23:46;10.20;;;7.70;;
33593;SDS011;19920;52.242;20.940;2022-09-19T18:26:15;9.88;;;8.00;;
33593;SDS011;19920;52.242;20.940;2022-09-19T18:28:43;8.95;;;7.47;;
33593;SDS011;19920;52.242;20.940;2022-09-19T18:31:10;14.90;;;8.13;;
33593;SDS011;19920;52.242;20.940;2022-09-19T18:33:41;10.32;;;7.97;;
33593;SDS011;19920;52.242;20.940;2022-09-19T18:36:14;10.75;;;8.15;;
33593;SDS011;19920;52.242;20.940;2022-09-19T18:38:42;11.40;;;8.27;;
33593;SDS011;19920;52.242;20.940;2022-09-19T18:41:08;10.88;;;8.57;;
33593;SDS011;19920;52.242;20.940;2022-09-19T18:43:35;13.45;;;8.85;;
33593;SDS011;19920;52.242;20.940;2022-09-19T18:46:02;11.77;;;8.18;;
33593;SDS011;19920;52.242;20.940;2022-09-19T18:48:33;11.02;;;8.23;;
33593;SDS011;19920;52.242;20.940;2022-09-19T18:50:59;11.07;;;8.88;;
33593;SDS011;19920;52.242;20.940;2022-09-19T18:53:30;11.60;;;8.60;;
33593;SDS011;19920;52.242;20.940;2022-09-19T18:55:56;17.80;;;9.48;;